createdAt,value
2022-10-16T00:01:42.619Z,44.45
2022-10-16T00:04:10.242Z,45.45
2022-10-16T00:06:37.388Z,40.13
2022-10-16T00:09:04.973Z,40.88
2022-10-16T00:11:35.246Z,40.08
2022-10-16T00:14:04.815Z,42.10
2022-10-16T00:16:32.221Z,40.07
2022-10-16T00:18:59.687Z,41.40
2022-10-16T00:21:29.513Z,41.22
2022-10-16T00:24:01.000Z,34.85
2022-10-16T00:26:30.093Z,38.85
2022-10-16T00:28:57.273Z,36.75
2022-10-16T00:31:25.102Z,38.92
2022-10-16T00:33:53.266Z,34.35
2022-10-16T00:36:23.466Z,36.60
2022-10-16T00:38:55.969Z,37.65
2022-10-16T00:41:26.244Z,36.05
2022-10-16T00:43:55.431Z,41.25
2022-10-16T00:46:46.619Z,38.70
2022-10-16T00:49:19.987Z,39.13
2022-10-16T00:51:51.002Z,37.38
2022-10-16T00:54:24.963Z,37.15
2022-10-16T00:56:52.750Z,37.88
2022-10-16T00:59:34.594Z,38.92
2022-10-16T01:02:02.703Z,38.45
2022-10-16T01:04:38.095Z,36.60
2022-10-16T01:07:27.057Z,39.25
2022-10-16T01:10:00.845Z,38.45
2022-10-16T01:12:45.480Z,40.53
2022-10-16T01:15:33.592Z,40.13
2022-10-16T01:18:09.998Z,34.60
2022-10-16T01:20:44.325Z,38.25
2022-10-16T01:23:26.525Z,37.30
2022-10-16T01:26:32.379Z,37.83
2022-10-16T01:29:20.510Z,36.28
2022-10-16T01:31:55.024Z,32.10
2022-10-16T01:34:45.944Z,33.75
2022-10-16T01:37:30.764Z,34.00
2022-10-16T01:40:01.812Z,32.78
2022-10-16T01:42:35.939Z,33.40
2022-10-16T01:45:07.766Z,33.35
2022-10-16T01:47:37.892Z,35.75
2022-10-16T01:50:06.946Z,32.63
2022-10-16T01:52:38.392Z,34.88
2022-10-16T01:55:08.437Z,33.20
2022-10-16T01:57:40.535Z,33.28
2022-10-16T02:00:11.861Z,35.80
2022-10-16T02:02:44.626Z,34.95
2022-10-16T02:05:23.622Z,37.25
2022-10-16T02:07:51.253Z,32.78
2022-10-16T02:10:19.376Z,33.35
2022-10-16T02:12:57.504Z,36.20
2022-10-16T02:15:24.728Z,33.40
2022-10-16T02:17:51.870Z,35.03
2022-10-16T02:20:24.064Z,35.67
2022-10-16T02:22:53.142Z,35.15
2022-10-16T02:25:34.239Z,36.53
2022-10-16T02:28:03.967Z,33.80
2022-10-16T02:30:42.903Z,35.33
2022-10-16T02:33:14.775Z,34.42
2022-10-16T02:35:44.044Z,35.70
2022-10-16T02:38:13.708Z,35.67
2022-10-16T02:40:42.080Z,33.58
2022-10-16T02:43:10.309Z,33.92
2022-10-16T02:45:38.177Z,35.95
2022-10-16T02:48:05.742Z,36.08
2022-10-16T02:50:33.116Z,40.38
2022-10-16T02:53:00.231Z,40.70
2022-10-16T02:55:29.078Z,35.60
2022-10-16T02:57:56.224Z,38.33
2022-10-16T03:00:23.877Z,37.40
2022-10-16T03:02:51.515Z,42.17
2022-10-16T03:05:18.800Z,40.03
2022-10-16T03:07:45.948Z,38.90
2022-10-16T03:10:13.346Z,40.63
2022-10-16T03:12:40.617Z,39.63
2022-10-16T03:15:08.669Z,35.88
2022-10-16T03:17:36.037Z,39.03
2022-10-16T03:20:03.785Z,38.15
2022-10-16T03:22:30.954Z,39.22
2022-10-16T03:24:58.244Z,39.95
2022-10-16T03:27:25.599Z,40.92
2022-10-16T03:29:53.134Z,41.40
2022-10-16T03:32:21.277Z,41.55
2022-10-16T03:34:48.524Z,39.35
2022-10-16T03:37:15.692Z,42.33
2022-10-16T03:39:42.812Z,38.72
2022-10-16T03:42:09.970Z,39.80
2022-10-16T03:44:37.094Z,40.97
2022-10-16T03:47:04.193Z,41.25
2022-10-16T03:49:31.445Z,42.25
2022-10-16T03:51:58.673Z,44.10
2022-10-16T03:54:26.077Z,40.50
2022-10-16T03:56:53.256Z,39.50
2022-10-16T03:59:20.519Z,40.80
2022-10-16T04:01:47.808Z,41.72
2022-10-16T04:04:15.016Z,40.95
2022-10-16T04:06:42.334Z,39.88
2022-10-16T04:09:09.553Z,39.97
2022-10-16T04:11:36.935Z,42.50
2022-10-16T04:14:04.243Z,39.58
2022-10-16T04:16:31.488Z,40.63
2022-10-16T04:18:58.759Z,42.70
2022-10-16T04:21:26.087Z,41.30
2022-10-16T04:23:53.445Z,42.70
2022-10-16T04:26:20.759Z,43.13
2022-10-16T04:28:48.076Z,42.25
2022-10-16T04:31:15.607Z,39.33
2022-10-16T04:33:46.024Z,38.47
2022-10-16T04:38:40.994Z,41.95
2022-10-16T04:41:08.902Z,39.47
2022-10-16T04:43:36.401Z,40.35
2022-10-16T04:46:05.797Z,37.35
2022-10-16T04:48:33.439Z,37.87
2022-10-16T04:51:00.798Z,35.70
2022-10-16T04:53:28.274Z,35.08
2022-10-16T04:55:55.723Z,35.20
2022-10-16T04:58:23.576Z,33.85
2022-10-16T05:00:50.796Z,35.35
2022-10-16T05:03:18.432Z,31.58
2022-10-16T05:05:46.737Z,31.60
2022-10-16T05:08:15.338Z,30.60
2022-10-16T05:10:44.583Z,31.67
2022-10-16T05:13:12.359Z,28.73
2022-10-16T05:15:39.533Z,28.30
2022-10-16T05:18:06.816Z,29.67
2022-10-16T05:20:34.037Z,29.00
2022-10-16T05:23:01.589Z,31.52
2022-10-16T05:25:28.838Z,27.92
2022-10-16T05:27:56.060Z,26.95
2022-10-16T05:30:23.464Z,27.48
2022-10-16T05:32:52.116Z,28.42
2022-10-16T05:35:20.919Z,30.02
2022-10-16T05:37:48.540Z,28.35
2022-10-16T05:40:16.232Z,26.48
2022-10-16T05:42:43.388Z,28.17
2022-10-16T05:45:13.055Z,29.20
2022-10-16T05:47:40.673Z,27.73
2022-10-16T05:50:08.533Z,30.92
2022-10-16T05:52:35.774Z,26.23
2022-10-16T05:55:03.528Z,28.40
2022-10-16T05:57:31.249Z,26.40
2022-10-16T05:59:58.497Z,27.73
2022-10-16T06:02:25.649Z,29.77
2022-10-16T06:04:55.936Z,25.23
2022-10-16T06:07:24.412Z,28.75
2022-10-16T06:09:53.384Z,25.60
2022-10-16T06:12:21.069Z,26.63
2022-10-16T06:14:48.480Z,27.85
2022-10-16T06:17:15.949Z,26.35
2022-10-16T06:19:43.295Z,27.98
2022-10-16T06:22:11.014Z,26.40
2022-10-16T06:24:38.145Z,30.55
2022-10-16T06:27:06.593Z,26.65
2022-10-16T06:29:33.672Z,25.38
2022-10-16T06:32:01.383Z,23.13
2022-10-16T06:34:28.622Z,27.95
2022-10-16T06:36:56.728Z,24.63
2022-10-16T06:39:23.941Z,22.45
2022-10-16T06:41:51.130Z,24.85
2022-10-16T06:44:18.394Z,21.10
2022-10-16T06:46:45.724Z,25.42
2022-10-16T06:49:12.974Z,26.88
2022-10-16T06:51:43.392Z,21.05
2022-10-16T06:54:11.158Z,22.63
2022-10-16T06:56:38.840Z,18.60
2022-10-16T06:59:06.345Z,19.30
2022-10-16T07:01:34.146Z,20.40
2022-10-16T07:04:03.520Z,20.13
2022-10-16T07:06:34.609Z,22.60
2022-10-16T07:09:04.709Z,22.85
2022-10-16T07:11:32.025Z,23.83
2022-10-16T07:14:00.238Z,26.05
2022-10-16T07:16:29.773Z,21.52
2022-10-16T07:19:01.479Z,19.97
2022-10-16T07:21:31.920Z,19.80
2022-10-16T07:24:01.026Z,21.25
2022-10-16T07:26:31.216Z,19.48
2022-10-16T07:28:59.035Z,20.05
2022-10-16T07:31:26.772Z,18.67
2022-10-16T07:33:55.024Z,18.83
2022-10-16T07:36:22.950Z,18.42
2022-10-16T07:38:52.768Z,17.15
2022-10-16T07:41:22.601Z,15.65
2022-10-16T07:43:52.407Z,16.83
2022-10-16T07:46:22.061Z,16.60
2022-10-16T07:48:50.224Z,15.43
2022-10-16T07:51:20.453Z,14.63
2022-10-16T07:53:48.393Z,12.48
2022-10-16T07:56:16.854Z,12.65
2022-10-16T07:58:44.661Z,12.75
2022-10-16T08:01:16.538Z,12.10
2022-10-16T08:03:45.406Z,14.45
2022-10-16T08:06:12.705Z,11.02
2022-10-16T08:08:40.150Z,11.10
2022-10-16T08:11:07.287Z,13.32
2022-10-16T08:13:34.573Z,14.25
2022-10-16T08:16:02.058Z,10.73
2022-10-16T08:18:29.331Z,16.77
2022-10-16T08:20:59.175Z,12.13
2022-10-16T08:23:27.493Z,10.18
2022-10-16T08:25:57.297Z,11.95
2022-10-16T08:28:24.937Z,11.82
2022-10-16T08:30:52.184Z,11.23
2022-10-16T08:33:19.762Z,10.75
2022-10-16T08:35:54.988Z,10.05
2022-10-16T08:38:22.602Z,14.82
2022-10-16T08:40:52.863Z,12.65
2022-10-16T08:43:22.167Z,9.98
2022-10-16T08:46:22.704Z,10.57
2022-10-16T08:51:33.344Z,10.40
2022-10-16T08:54:23.023Z,12.45
2022-10-16T08:56:50.495Z,10.90
2022-10-16T08:59:19.767Z,12.40
2022-10-16T09:01:51.193Z,11.43
2022-10-16T09:04:56.788Z,10.85
2022-10-16T09:08:13.574Z,8.80
2022-10-16T09:10:46.748Z,9.68
2022-10-16T09:13:16.663Z,9.77
2022-10-16T09:16:06.998Z,10.13
2022-10-16T09:18:47.162Z,9.98
2022-10-16T09:21:31.881Z,10.80
2022-10-16T09:24:09.404Z,8.88
2022-10-16T09:26:36.583Z,9.02
2022-10-16T09:29:04.779Z,8.90
2022-10-16T09:31:32.273Z,8.82
2022-10-16T09:34:07.618Z,12.18
2022-10-16T09:36:43.305Z,9.55
2022-10-16T09:39:15.576Z,8.57
2022-10-16T09:41:46.247Z,9.93
2022-10-16T09:44:33.213Z,7.78
2022-10-16T09:47:15.848Z,10.48
2022-10-16T09:50:07.395Z,10.45
2022-10-16T09:52:34.838Z,11.75
2022-10-16T09:55:17.120Z,11.93
2022-10-16T09:57:54.901Z,11.35
2022-10-16T10:00:24.733Z,9.10
2022-10-16T10:02:52.957Z,11.00
2022-10-16T10:05:24.715Z,10.45
2022-10-16T10:08:01.179Z,10.73
2022-10-16T10:10:30.685Z,10.65
2022-10-16T10:12:58.468Z,10.10
2022-10-16T10:15:29.165Z,9.73
2022-10-16T10:17:58.259Z,10.55
2022-10-16T10:20:35.628Z,15.38
2022-10-16T10:23:22.844Z,8.50
2022-10-16T10:25:57.963Z,9.45
2022-10-16T10:28:49.778Z,13.55
2022-10-16T10:31:48.918Z,14.05
2022-10-16T10:34:37.608Z,9.75
2022-10-16T10:37:09.452Z,12.90
2022-10-16T10:39:44.817Z,11.50
2022-10-16T10:42:27.156Z,10.10
2022-10-16T10:45:05.262Z,8.00
2022-10-16T10:48:10.153Z,9.07
2022-10-16T10:50:42.578Z,10.15
2022-10-16T10:53:22.933Z,9.15
2022-10-16T10:58:52.754Z,8.60
2022-10-16T11:01:44.884Z,9.20
2022-10-16T11:04:12.009Z,8.35
2022-10-16T11:06:53.674Z,8.48
2022-10-16T11:09:28.747Z,10.05
2022-10-16T11:12:33.553Z,9.90
2022-10-16T11:15:18.889Z,7.40
2022-10-16T11:18:00.565Z,8.23
2022-10-16T11:20:33.003Z,10.93
2022-10-16T11:23:29.705Z,10.02
2022-10-16T11:26:03.526Z,8.60
2022-10-16T11:28:34.078Z,7.13
2022-10-16T11:31:21.142Z,9.02
2022-10-16T11:34:07.719Z,8.32
2022-10-16T11:36:44.176Z,7.60
2022-10-16T11:39:22.047Z,6.53
2022-10-16T11:41:54.203Z,6.53
2022-10-16T11:44:46.336Z,8.82
2022-10-16T11:47:58.638Z,6.55
2022-10-16T11:50:50.632Z,6.88
2022-10-16T11:53:22.953Z,7.28
2022-10-16T11:55:50.275Z,8.70
2022-10-16T11:58:17.577Z,7.28
2022-10-16T12:00:52.974Z,8.40
2022-10-16T12:03:29.585Z,7.22
2022-10-16T12:06:12.393Z,7.15
2022-10-16T12:08:40.002Z,11.27
2022-10-16T12:11:30.225Z,8.80
2022-10-16T12:14:06.555Z,6.90
2022-10-16T12:16:33.812Z,10.73
2022-10-16T12:19:13.232Z,7.10
2022-10-16T12:21:41.677Z,6.28
2022-10-16T12:24:42.666Z,6.82
2022-10-16T12:27:43.234Z,9.00
2022-10-16T12:30:25.014Z,6.57
2022-10-16T12:33:00.328Z,7.85
2022-10-16T12:35:34.846Z,7.10
2022-10-16T12:38:17.092Z,6.85
2022-10-16T12:40:46.264Z,6.05
2022-10-16T12:43:26.133Z,6.90
2022-10-16T12:46:23.858Z,6.53
2022-10-16T12:49:08.339Z,6.60
2022-10-16T12:51:39.095Z,5.35
2022-10-16T12:54:27.634Z,4.22
2022-10-16T12:57:00.485Z,5.60
2022-10-16T12:59:55.063Z,6.50
2022-10-16T13:02:53.195Z,6.28
2022-10-16T13:05:38.389Z,5.25
2022-10-16T13:08:27.228Z,5.53
2022-10-16T13:11:09.865Z,6.80
2022-10-16T13:13:53.356Z,5.38
2022-10-16T13:16:41.976Z,5.63
2022-10-16T13:19:18.103Z,5.65
2022-10-16T13:22:14.633Z,5.03
2022-10-16T13:25:00.630Z,7.10
2022-10-16T13:27:57.203Z,8.15
2022-10-16T13:30:31.146Z,5.47
2022-10-16T13:33:26.323Z,7.43
2022-10-16T13:35:56.507Z,5.55
2022-10-16T13:38:29.463Z,7.10
2022-10-16T13:40:58.013Z,9.93
2022-10-16T13:43:34.057Z,6.65
2022-10-16T13:46:26.642Z,5.63
2022-10-16T13:49:13.001Z,8.55
2022-10-16T13:51:40.249Z,5.47
2022-10-16T13:54:13.053Z,6.07
2022-10-16T13:56:41.864Z,6.97
2022-10-16T13:59:24.284Z,6.35
2022-10-16T14:01:55.505Z,6.18
2022-10-16T14:04:23.779Z,5.03
2022-10-16T14:06:53.073Z,5.28
2022-10-16T14:09:24.522Z,7.07
2022-10-16T14:11:56.433Z,6.07
2022-10-16T14:14:24.383Z,6.53
2022-10-16T14:16:52.327Z,5.55
2022-10-16T14:19:31.193Z,6.00
2022-10-16T14:22:01.086Z,5.55
2022-10-16T14:24:37.523Z,6.13
2022-10-16T14:27:31.242Z,6.90
2022-10-16T14:30:25.210Z,6.22
2022-10-16T14:33:21.660Z,5.72
2022-10-16T14:36:02.904Z,8.05
2022-10-16T14:38:30.967Z,7.40
2022-10-16T14:41:00.637Z,5.85
2022-10-16T14:43:46.402Z,5.68
2022-10-16T14:46:18.852Z,6.13
2022-10-16T14:51:20.227Z,7.75
2022-10-16T14:53:48.632Z,5.15
2022-10-16T14:56:31.311Z,6.35
2022-10-16T14:59:00.477Z,7.43
2022-10-16T15:01:27.952Z,6.38
2022-10-16T15:03:56.432Z,6.18
2022-10-16T15:06:23.809Z,5.25
2022-10-16T15:08:51.147Z,6.57
2022-10-16T15:11:20.424Z,6.03
2022-10-16T15:13:48.019Z,6.55
2022-10-16T15:16:17.845Z,6.50
2022-10-16T15:18:45.243Z,8.70
2022-10-16T15:21:30.634Z,4.93
2022-10-16T15:23:59.714Z,6.32
2022-10-16T15:26:28.877Z,6.07
2022-10-16T15:28:56.498Z,5.30
2022-10-16T15:31:24.859Z,7.18
2022-10-16T15:33:55.443Z,7.75
2022-10-16T15:36:27.525Z,6.00
2022-10-16T15:38:54.927Z,6.30
2022-10-16T15:41:22.923Z,5.90
2022-10-16T15:43:51.548Z,7.18
2022-10-16T15:46:21.456Z,6.10
2022-10-16T15:48:50.455Z,6.70
2022-10-16T15:51:18.960Z,6.35
2022-10-16T15:53:47.639Z,6.28
2022-10-16T15:56:15.644Z,6.28
2022-10-16T15:58:43.620Z,5.22
2022-10-16T16:01:12.484Z,6.00
2022-10-16T16:03:43.324Z,6.85
2022-10-16T16:06:14.435Z,6.32
2022-10-16T16:08:42.065Z,7.72
2022-10-16T16:11:12.514Z,7.68
2022-10-16T16:13:40.085Z,5.78
2022-10-16T16:16:15.880Z,6.95
2022-10-16T16:18:43.634Z,7.05
2022-10-16T16:21:13.401Z,6.45
2022-10-16T16:23:40.803Z,8.93
2022-10-16T16:26:16.648Z,6.38
2022-10-16T16:28:44.797Z,5.75
2022-10-16T16:31:12.234Z,7.80
2022-10-16T16:33:39.329Z,9.00
2022-10-16T16:36:11.534Z,9.05
2022-10-16T16:38:40.225Z,7.40
2022-10-16T16:41:22.089Z,10.25
2022-10-16T16:43:49.855Z,7.85
2022-10-16T16:46:17.135Z,8.43
2022-10-16T16:48:45.325Z,6.90
2022-10-16T16:51:17.476Z,8.05
2022-10-16T16:53:46.118Z,9.13
2022-10-16T16:56:14.135Z,6.65
2022-10-16T16:58:41.302Z,7.13
2022-10-16T17:01:26.239Z,7.30
2022-10-16T17:03:56.330Z,7.47
2022-10-16T17:06:30.823Z,7.43
2022-10-16T17:08:58.844Z,6.93
2022-10-16T17:11:28.073Z,8.90
2022-10-16T17:13:57.434Z,7.78
2022-10-16T17:16:28.309Z,6.97
2022-10-16T17:18:55.489Z,9.00
2022-10-16T17:21:23.060Z,9.70
2022-10-16T17:23:53.662Z,9.32
2022-10-16T17:26:20.857Z,10.80
2022-10-16T17:28:53.030Z,10.63
2022-10-16T17:31:38.613Z,11.98
2022-10-16T17:34:08.628Z,11.35
2022-10-16T17:36:37.575Z,9.20
2022-10-16T17:39:11.045Z,10.38
2022-10-16T17:41:38.527Z,9.13
2022-10-16T17:44:07.054Z,9.27
2022-10-16T17:46:38.265Z,12.30
2022-10-16T17:49:08.526Z,11.52
2022-10-16T17:51:36.761Z,12.45
2022-10-16T17:54:04.173Z,10.02
2022-10-16T17:56:31.926Z,12.50
2022-10-16T17:59:02.095Z,11.15
2022-10-16T18:01:35.085Z,14.73
2022-10-16T18:04:14.423Z,10.98
2022-10-16T18:06:44.392Z,14.73
2022-10-16T18:09:15.220Z,12.35
2022-10-16T18:11:42.385Z,14.15
2022-10-16T18:14:12.758Z,10.77
2022-10-16T18:19:07.590Z,12.77
2022-10-16T18:21:34.694Z,12.30
2022-10-16T18:24:02.163Z,10.15
2022-10-16T18:26:29.485Z,12.85
2022-10-16T18:28:58.532Z,10.10
2022-10-16T18:31:29.074Z,11.52
2022-10-16T18:33:56.417Z,11.43
2022-10-16T18:36:26.662Z,11.95
2022-10-16T18:38:54.293Z,11.70
2022-10-16T18:41:21.995Z,12.40
2022-10-16T18:43:49.307Z,12.15
2022-10-16T18:46:22.125Z,12.80
2022-10-16T18:48:50.265Z,13.15
2022-10-16T18:51:39.325Z,12.18
2022-10-16T18:54:11.923Z,13.68
2022-10-16T18:56:39.894Z,15.07
2022-10-16T18:59:08.471Z,14.15
2022-10-16T19:01:39.000Z,14.52
2022-10-16T19:04:09.748Z,11.23
2022-10-16T19:06:39.549Z,14.15
2022-10-16T19:09:07.581Z,14.93
2022-10-16T19:11:40.514Z,13.82
2022-10-16T19:14:09.273Z,15.32
2022-10-16T19:16:38.317Z,12.60
2022-10-16T19:19:08.058Z,14.70
2022-10-16T19:21:37.748Z,14.55
2022-10-16T19:24:05.522Z,13.40
2022-10-16T19:26:36.806Z,14.05
2022-10-16T19:29:07.473Z,13.70
2022-10-16T19:31:35.037Z,15.75
2022-10-16T19:34:03.593Z,14.02
2022-10-16T19:36:38.267Z,12.85
2022-10-16T19:39:08.318Z,12.95
2022-10-16T19:41:38.255Z,13.15
2022-10-16T19:44:08.373Z,12.63
2022-10-16T19:46:36.384Z,14.55
2022-10-16T19:49:07.160Z,13.50
2022-10-16T19:51:35.414Z,13.63
2022-10-16T19:54:05.518Z,16.35
2022-10-16T19:56:34.048Z,13.43
2022-10-16T19:59:01.755Z,15.68
2022-10-16T20:01:31.402Z,15.88
2022-10-16T20:03:59.006Z,14.93
2022-10-16T20:06:26.363Z,14.55
2022-10-16T20:08:54.453Z,12.50
2022-10-16T20:11:24.824Z,14.70
2022-10-16T20:16:20.127Z,15.07
2022-10-16T20:18:49.603Z,15.05
2022-10-16T20:21:19.623Z,12.23
2022-10-16T20:23:49.162Z,14.95
2022-10-16T20:26:16.981Z,17.40
2022-10-16T20:28:44.795Z,15.45
2022-10-16T20:31:18.358Z,18.25
2022-10-16T20:33:45.730Z,16.35
2022-10-16T20:36:14.616Z,18.10
2022-10-16T20:38:42.934Z,15.07
2022-10-16T20:41:11.006Z,15.60
2022-10-16T20:46:11.155Z,14.82
2022-10-16T20:48:41.335Z,17.25
2022-10-16T20:51:16.878Z,15.38
2022-10-16T20:53:46.718Z,15.40
2022-10-16T20:56:18.583Z,17.48
2022-10-16T20:58:46.105Z,16.15
2022-10-16T21:01:15.680Z,15.68
2022-10-16T21:03:43.756Z,14.70
2022-10-16T21:06:11.848Z,19.98
2022-10-16T21:08:41.389Z,16.38
2022-10-16T21:11:16.584Z,15.93
2022-10-16T21:13:44.453Z,16.50
2022-10-16T21:16:13.078Z,19.02
2022-10-16T21:18:44.359Z,16.25
2022-10-16T21:21:20.073Z,17.83
2022-10-16T21:23:48.384Z,15.68
2022-10-16T21:26:15.777Z,14.57
2022-10-16T21:28:43.019Z,18.77
2022-10-16T21:31:15.724Z,17.15
2022-10-16T21:33:43.185Z,18.08
2022-10-16T21:36:21.777Z,18.27
2022-10-16T21:38:49.441Z,15.88
2022-10-16T21:41:27.292Z,18.63
2022-10-16T21:43:56.475Z,16.58
2022-10-16T21:46:26.556Z,17.90
2022-10-16T21:48:55.277Z,15.27
2022-10-16T21:51:31.285Z,15.32
2022-10-16T21:53:58.412Z,15.13
2022-10-16T21:56:26.910Z,16.65
2022-10-16T21:58:54.232Z,16.45
2022-10-16T22:01:24.071Z,16.95
2022-10-16T22:03:52.298Z,15.07
2022-10-16T22:08:51.745Z,16.40
2022-10-16T22:11:23.294Z,14.82
2022-10-16T22:13:54.045Z,15.30
2022-10-16T22:16:25.541Z,17.13
2022-10-16T22:18:53.899Z,14.05
2022-10-16T22:21:21.204Z,18.35
2022-10-16T22:23:48.492Z,17.83
2022-10-16T22:26:16.170Z,14.45
2022-10-16T22:28:43.897Z,14.93
2022-10-16T22:31:13.675Z,17.05
2022-10-16T22:33:43.505Z,15.88
2022-10-16T22:36:15.163Z,17.92
2022-10-16T22:38:42.475Z,14.55
2022-10-16T22:41:12.534Z,17.05
2022-10-16T22:43:43.312Z,13.85
2022-10-16T22:46:14.157Z,12.90
2022-10-16T22:48:42.127Z,12.60
2022-10-16T22:51:15.735Z,16.77
2022-10-16T22:53:48.446Z,15.40
2022-10-16T22:56:17.992Z,16.75
2022-10-16T22:58:45.372Z,15.57
2022-10-16T23:01:14.765Z,18.75
2022-10-16T23:03:42.147Z,16.33
2022-10-16T23:06:09.225Z,15.63
2022-10-16T23:08:36.321Z,15.48
2022-10-16T23:11:08.463Z,16.77
2022-10-16T23:13:45.800Z,20.15
2022-10-16T23:16:15.594Z,18.30
2022-10-16T23:18:44.594Z,15.45
2022-10-16T23:21:18.484Z,17.88
2022-10-16T23:23:45.663Z,22.13
2022-10-16T23:26:17.934Z,16.38
2022-10-16T23:28:45.601Z,17.60
2022-10-16T23:31:13.773Z,15.60
2022-10-16T23:33:42.131Z,14.57
2022-10-16T23:36:14.607Z,18.02
2022-10-16T23:38:43.554Z,12.93
2022-10-16T23:41:11.328Z,18.98
2022-10-16T23:43:38.545Z,17.90
2022-10-16T23:46:06.964Z,16.10
2022-10-16T23:48:34.434Z,18.95
2022-10-16T23:51:01.873Z,18.00
2022-10-16T23:53:29.083Z,15.80
2022-10-16T23:55:56.386Z,18.15
2022-10-16T23:58:23.980Z,17.40
